createdAt,value
2018-04-29T00:00:28.376Z,100631.98
2018-04-29T00:02:55.962Z,100630.48
2018-04-29T00:05:24.182Z,100621.97
2018-04-29T00:07:51.764Z,100619.84
2018-04-29T00:10:19.350Z,100618.27
2018-04-29T00:12:46.930Z,100616.13
2018-04-29T00:15:14.518Z,100617.60
2018-04-29T00:17:42.179Z,100609.33
2018-04-29T00:20:09.758Z,100603.48
2018-04-29T00:22:37.341Z,100607.63
2018-04-29T00:25:04.929Z,100611.34
2018-04-29T00:27:32.509Z,100602.48
2018-04-29T00:30:00.994Z,100588.70
2018-04-29T00:32:28.584Z,100577.94
2018-04-29T00:34:56.170Z,100579.51
2018-04-29T00:37:23.801Z,100579.69
2018-04-29T00:39:51.406Z,100577.35
2018-04-29T00:42:19.064Z,100581.61
2018-04-29T00:44:46.649Z,100584.55
2018-04-29T00:47:14.234Z,100592.95
2018-04-29T00:49:41.813Z,100595.81
2018-04-29T00:52:09.394Z,100600.45
2018-04-29T00:54:36.979Z,100609.71
2018-04-29T00:57:04.565Z,100605.42
2018-04-29T00:59:32.188Z,100608.41
2018-04-29T01:01:59.857Z,100608.75
2018-04-29T01:04:27.569Z,100609.23
2018-04-29T01:06:55.185Z,100621.60
2018-04-29T01:09:22.797Z,100616.27
2018-04-29T01:11:50.377Z,100621.05
2018-04-29T01:14:18.021Z,100612.72
2018-04-29T01:16:45.601Z,100619.73
2018-04-29T01:19:13.185Z,100621.23
2018-04-29T01:21:40.770Z,100615.70
2018-04-29T01:24:08.355Z,100613.05
2018-04-29T01:26:35.969Z,100621.84
2018-04-29T01:29:03.585Z,100631.53
2018-04-29T01:31:31.300Z,100635.49
2018-04-29T01:33:58.882Z,100629.02
2018-04-29T01:36:26.497Z,100635.20
2018-04-29T01:38:54.077Z,100637.76
2018-04-29T01:41:21.662Z,100638.55
2018-04-29T01:43:49.245Z,100632.72
2018-04-29T01:46:16.833Z,100631.94
2018-04-29T01:48:44.419Z,100634.91
2018-04-29T01:51:12.018Z,100637.86
2018-04-29T01:53:39.604Z,100638.38
2018-04-29T01:56:07.190Z,100638.96
2018-04-29T01:58:34.809Z,100634.22
2018-04-29T02:01:02.394Z,100632.77
2018-04-29T02:03:29.978Z,100638.85
2018-04-29T02:05:57.561Z,100633.80
2018-04-29T02:08:25.140Z,100633.51
2018-04-29T02:10:52.785Z,100630.05
2018-04-29T02:13:20.366Z,100629.67
2018-04-29T02:15:47.947Z,100620.12
2018-04-29T02:18:16.312Z,100621.38
2018-04-29T02:20:43.894Z,100620.71
2018-04-29T02:23:11.473Z,100621.95
2018-04-29T02:25:39.053Z,100619.58
2018-04-29T02:28:06.641Z,100622.74
2018-04-29T02:30:34.230Z,100622.43
2018-04-29T02:33:01.810Z,100629.81
2018-04-29T02:35:29.453Z,100627.11
2018-04-29T02:37:57.041Z,100629.19
2018-04-29T02:40:24.675Z,100625.73
2018-04-29T02:42:52.269Z,100631.44
2018-04-29T02:45:19.898Z,100636.22
2018-04-29T02:47:47.527Z,100638.67
2018-04-29T02:50:15.114Z,100643.13
2018-04-29T02:52:42.703Z,100648.59
2018-04-29T02:55:10.294Z,100642.86
2018-04-29T02:57:37.882Z,100641.63
2018-04-29T03:00:05.587Z,100638.00
2018-04-29T03:02:33.214Z,100638.30
2018-04-29T03:05:00.805Z,100640.52
2018-04-29T03:07:28.426Z,100630.97
2018-04-29T03:09:56.016Z,100631.91
2018-04-29T03:12:23.611Z,100635.92
2018-04-29T03:14:51.208Z,100637.39
2018-04-29T03:17:18.828Z,100627.95
2018-04-29T03:19:46.409Z,100624.20
2018-04-29T03:22:13.990Z,100618.42
2018-04-29T03:24:41.581Z,100617.11
2018-04-29T03:27:09.161Z,100613.69
2018-04-29T03:29:36.769Z,100625.96
2018-04-29T03:32:04.369Z,100631.64
2018-04-29T03:34:31.961Z,100623.78
2018-04-29T03:36:59.553Z,100626.70
2018-04-29T03:39:27.173Z,100630.80
2018-04-29T03:41:54.757Z,100619.08
2018-04-29T03:44:22.345Z,100607.43
2018-04-29T03:46:50.007Z,100620.13
2018-04-29T03:49:17.634Z,100627.44
2018-04-29T03:51:45.222Z,100637.82
2018-04-29T03:54:12.809Z,100641.91
2018-04-29T03:56:40.453Z,100643.98
2018-04-29T03:59:20.053Z,100643.05
2018-04-29T04:01:59.659Z,100642.34
2018-04-29T04:04:27.249Z,100641.77
2018-04-29T04:06:54.833Z,100640.41
2018-04-29T04:09:22.422Z,100647.63
2018-04-29T04:11:50.042Z,100652.09
2018-04-29T04:14:17.654Z,100649.21
2018-04-29T04:16:45.241Z,100650.42
2018-04-29T04:19:12.878Z,100669.69
2018-04-29T04:21:40.497Z,100671.42
2018-04-29T04:24:08.094Z,100675.45
2018-04-29T04:26:35.678Z,100680.03
2018-04-29T04:29:03.270Z,100677.59
2018-04-29T04:31:30.855Z,100683.06
2018-04-29T04:33:58.446Z,100681.93
2018-04-29T04:36:26.101Z,100688.13
2018-04-29T04:38:53.690Z,100689.31
2018-04-29T04:41:21.289Z,100689.92
2018-04-29T04:43:48.920Z,100688.43
2018-04-29T04:46:16.505Z,100685.03
2018-04-29T04:48:44.093Z,100681.53
2018-04-29T04:51:11.677Z,100677.80
2018-04-29T04:53:39.337Z,100681.30
2018-04-29T04:56:06.925Z,100688.22
2018-04-29T04:58:34.514Z,100683.33
2018-04-29T05:01:02.094Z,100680.36
2018-04-29T05:03:29.686Z,100680.23
2018-04-29T05:05:57.346Z,100683.38
2018-04-29T05:08:24.936Z,100691.24
2018-04-29T05:10:52.554Z,100688.85
2018-04-29T05:13:20.137Z,100689.89
2018-04-29T05:15:47.756Z,100692.20
2018-04-29T05:18:15.346Z,100691.89
2018-04-29T05:20:42.972Z,100685.64
2018-04-29T05:23:10.582Z,100691.07
2018-04-29T05:25:38.166Z,100691.89
2018-04-29T05:28:05.751Z,100689.14
2018-04-29T05:30:33.333Z,100684.88
2018-04-29T05:33:00.959Z,100684.02
2018-04-29T05:35:28.653Z,100682.44
2018-04-29T05:37:56.201Z,100677.66
2018-04-29T05:40:23.793Z,100679.45
2018-04-29T05:42:51.421Z,100674.44
2018-04-29T05:45:19.005Z,100676.95
2018-04-29T05:47:46.720Z,100669.77
2018-04-29T05:50:15.006Z,100679.38
2018-04-29T05:52:42.635Z,100682.34
2018-04-29T05:55:10.229Z,100678.35
2018-04-29T05:57:37.854Z,100679.47
2018-04-29T06:00:05.446Z,100684.36
2018-04-29T06:02:33.029Z,100686.48
2018-04-29T06:05:00.647Z,100685.40
2018-04-29T06:07:29.182Z,100684.73
2018-04-29T06:09:56.776Z,100677.19
2018-04-29T06:12:24.453Z,100678.10
2018-04-29T06:14:53.109Z,100675.13
2018-04-29T06:17:20.855Z,100672.14
2018-04-29T06:19:48.520Z,100675.78
2018-04-29T06:22:16.161Z,100681.55
2018-04-29T06:24:43.741Z,100681.72
2018-04-29T06:27:11.336Z,100670.67
2018-04-29T06:29:39.018Z,100668.00
2018-04-29T06:32:06.610Z,100668.25
2018-04-29T06:34:34.189Z,100665.41
2018-04-29T06:37:01.773Z,100672.55
2018-04-29T06:39:29.350Z,100678.91
2018-04-29T06:41:56.966Z,100679.11
2018-04-29T06:44:24.616Z,100672.95
2018-04-29T06:46:52.286Z,100674.60
2018-04-29T06:49:19.942Z,100668.25
2018-04-29T06:51:47.537Z,100674.48
2018-04-29T06:54:15.118Z,100676.88
2018-04-29T06:56:42.761Z,100671.77
2018-04-29T06:59:10.375Z,100674.06
2018-04-29T07:01:37.953Z,100677.05
2018-04-29T07:04:05.535Z,100677.27
2018-04-29T07:06:33.110Z,100676.17
2018-04-29T07:09:00.685Z,100677.69
2018-04-29T07:11:28.289Z,100670.20
2018-04-29T07:13:55.874Z,100673.47
2018-04-29T07:16:23.477Z,100678.08
2018-04-29T07:18:51.054Z,100674.16
2018-04-29T07:21:18.665Z,100678.31
2018-04-29T07:23:46.282Z,100681.28
2018-04-29T07:26:13.863Z,100675.96
2018-04-29T07:28:41.555Z,100680.23
2018-04-29T07:31:09.094Z,100683.43
2018-04-29T07:33:36.674Z,100681.11
2018-04-29T07:36:04.253Z,100675.48
2018-04-29T07:38:31.830Z,100674.99
2018-04-29T07:40:59.497Z,100682.69
2018-04-29T07:43:27.135Z,100679.95
2018-04-29T07:45:54.726Z,100678.88
2018-04-29T07:48:22.382Z,100675.73
2018-04-29T07:50:50.051Z,100667.05
2018-04-29T07:53:17.633Z,100658.66
2018-04-29T07:55:45.258Z,100656.44
2018-04-29T07:58:12.941Z,100649.95
2018-04-29T08:00:40.597Z,100641.36
2018-04-29T08:03:08.130Z,100637.30
2018-04-29T08:05:35.736Z,100644.19
2018-04-29T08:08:03.385Z,100651.67
2018-04-29T08:10:31.041Z,100668.99
2018-04-29T08:12:58.618Z,100667.05
2018-04-29T08:15:26.319Z,100658.61
2018-04-29T08:17:53.937Z,100662.11
2018-04-29T08:20:21.522Z,100665.37
2018-04-29T08:22:49.195Z,100656.72
2018-04-29T08:25:16.759Z,100653.37
2018-04-29T08:27:44.366Z,100650.01
2018-04-29T08:30:12.005Z,100646.65
2018-04-29T08:32:39.586Z,100649.31
2018-04-29T08:35:07.269Z,100656.19
2018-04-29T08:37:34.855Z,100643.44
2018-04-29T08:40:02.491Z,100634.23
2018-04-29T08:42:30.208Z,100632.23
2018-04-29T08:44:57.781Z,100620.05
2018-04-29T08:47:25.389Z,100626.80
2018-04-29T08:49:53.010Z,100618.81
2018-04-29T08:52:20.585Z,100608.98
2018-04-29T08:54:48.229Z,100612.21
2018-04-29T08:57:16.885Z,100613.95
2018-04-29T08:59:44.470Z,100621.22
2018-04-29T09:02:12.046Z,100620.06
2018-04-29T09:04:39.704Z,100621.83
2018-04-29T09:07:07.290Z,100625.34
2018-04-29T09:09:34.873Z,100627.41
2018-04-29T09:12:02.456Z,100619.98
2018-04-29T09:14:30.086Z,100625.30
2018-04-29T09:16:57.667Z,100623.66
2018-04-29T09:19:25.416Z,100618.17
2018-04-29T09:21:53.004Z,100609.02
2018-04-29T09:24:20.585Z,100609.91
2018-04-29T09:26:48.203Z,100605.91
2018-04-29T09:29:15.858Z,100606.55
2018-04-29T09:31:43.517Z,100602.12
2018-04-29T09:34:11.093Z,100602.82
2018-04-29T09:36:38.678Z,100604.58
2018-04-29T09:39:06.262Z,100614.58
2018-04-29T09:41:33.838Z,100603.59
2018-04-29T09:44:01.415Z,100608.27
2018-04-29T09:46:28.997Z,100608.28
2018-04-29T09:48:56.573Z,100611.28
2018-04-29T09:51:24.157Z,100611.66
2018-04-29T09:53:51.762Z,100614.02
2018-04-29T09:56:19.417Z,100607.76
2018-04-29T09:58:46.990Z,100608.52
2018-04-29T10:01:25.216Z,100607.02
2018-04-29T10:03:52.919Z,100607.35
2018-04-29T10:06:20.497Z,100600.55
2018-04-29T10:08:48.073Z,100597.27
2018-04-29T10:11:15.646Z,100595.27
2018-04-29T10:13:43.227Z,100598.67
2018-04-29T10:16:10.807Z,100601.70
2018-04-29T10:18:38.384Z,100594.37
2018-04-29T10:21:05.997Z,100591.91
2018-04-29T10:23:33.610Z,100590.40
2018-04-29T10:26:01.191Z,100581.74
2018-04-29T10:28:28.776Z,100580.98
2018-04-29T10:30:56.418Z,100572.33
2018-04-29T10:33:24.025Z,100574.29
2018-04-29T10:35:51.598Z,100571.86
2018-04-29T10:38:19.204Z,100562.19
2018-04-29T10:40:46.851Z,100567.55
2018-04-29T10:43:14.474Z,100563.56
2018-04-29T10:45:42.114Z,100557.94
2018-04-29T10:48:09.692Z,100564.92
2018-04-29T10:50:37.270Z,100552.88
2018-04-29T10:53:04.843Z,100550.62
2018-04-29T10:55:32.417Z,100554.94
2018-04-29T10:57:59.984Z,100554.73
2018-04-29T11:00:27.641Z,100550.92
2018-04-29T11:02:55.218Z,100546.47
2018-04-29T11:05:22.825Z,100535.95
2018-04-29T11:07:50.409Z,100544.20
2018-04-29T11:10:18.917Z,100546.64
2018-04-29T11:12:46.531Z,100545.63
2018-04-29T11:15:14.116Z,100534.32
2018-04-29T11:17:41.690Z,100536.38
2018-04-29T11:20:09.256Z,100533.36
2018-04-29T11:22:37.008Z,100527.73
2018-04-29T11:25:04.585Z,100533.16
2018-04-29T11:27:32.286Z,100527.98
2018-04-29T11:29:59.878Z,100533.34
2018-04-29T11:32:27.459Z,100523.39
2018-04-29T11:34:55.044Z,100526.47
2018-04-29T11:37:22.617Z,100523.80
2018-04-29T11:39:50.225Z,100526.47
2018-04-29T11:42:17.801Z,100523.95
2018-04-29T11:44:45.413Z,100529.39
2018-04-29T11:47:13.005Z,100529.05
2018-04-29T11:49:40.608Z,100527.20
2018-04-29T11:52:08.230Z,100511.61
2018-04-29T11:54:35.850Z,100515.59
2018-04-29T11:57:03.581Z,100508.06
2018-04-29T11:59:31.153Z,100507.56
2018-04-29T12:01:58.790Z,100499.66
2018-04-29T12:04:26.473Z,100503.70
2018-04-29T12:06:54.123Z,100500.96
2018-04-29T12:09:21.703Z,100497.66
2018-04-29T12:11:49.402Z,100493.28
2018-04-29T12:14:17.012Z,100492.73
2018-04-29T12:16:44.598Z,100494.63
2018-04-29T12:19:12.241Z,100492.04
2018-04-29T12:21:39.832Z,100482.03
2018-04-29T12:24:07.439Z,100482.00
2018-04-29T12:26:35.019Z,100475.27
2018-04-29T12:29:02.598Z,100477.80
2018-04-29T12:31:30.176Z,100479.92
2018-04-29T12:33:57.749Z,100478.05
2018-04-29T12:36:26.212Z,100473.36
2018-04-29T12:38:56.378Z,100468.46
2018-04-29T12:41:24.179Z,100467.17
2018-04-29T12:43:51.789Z,100460.51
2018-04-29T12:46:19.398Z,100456.22
2018-04-29T12:48:46.977Z,100458.52
2018-04-29T12:51:14.670Z,100452.47
2018-04-29T12:53:42.285Z,100452.73
2018-04-29T12:56:09.868Z,100447.25
2018-04-29T12:58:37.453Z,100448.50
2018-04-29T13:01:05.067Z,100451.47
2018-04-29T13:03:32.777Z,100448.47
2018-04-29T13:06:00.357Z,100442.97
2018-04-29T13:08:27.934Z,100437.59
2018-04-29T13:10:55.513Z,100426.23
2018-04-29T13:13:23.118Z,100432.28
2018-04-29T13:15:50.705Z,100426.46
2018-04-29T13:18:18.282Z,100423.14
2018-04-29T13:20:45.857Z,100422.59
2018-04-29T13:23:13.430Z,100417.65
2018-04-29T13:25:41.013Z,100416.02
2018-04-29T13:28:08.589Z,100418.98
2018-04-29T13:30:36.228Z,100404.08
2018-04-29T13:33:03.809Z,100406.37
2018-04-29T13:35:31.389Z,100395.80
2018-04-29T13:37:58.961Z,100397.53
2018-04-29T13:40:26.599Z,100393.72
2018-04-29T13:42:54.197Z,100385.52
2018-04-29T13:45:21.825Z,100376.16
2018-04-29T13:47:49.435Z,100379.69
2018-04-29T13:50:17.044Z,100378.95
2018-04-29T13:52:44.826Z,100376.86
2018-04-29T13:55:12.465Z,100375.86
2018-04-29T13:57:40.051Z,100367.56
2018-04-29T14:00:07.630Z,100366.42
2018-04-29T14:02:35.258Z,100357.45
2018-04-29T14:05:02.846Z,100358.03
2018-04-29T14:07:30.426Z,100354.53
2018-04-29T14:09:58.011Z,100358.92
2018-04-29T14:12:25.591Z,100354.53
2018-04-29T14:14:53.218Z,100344.19
2018-04-29T14:17:20.829Z,100350.45
2018-04-29T14:19:49.052Z,100343.91
2018-04-29T14:22:16.687Z,100343.38
2018-04-29T14:24:44.237Z,100344.91
2018-04-29T14:27:11.889Z,100338.11
2018-04-29T14:29:39.603Z,100329.63
2018-04-29T14:32:07.178Z,100334.52
2018-04-29T14:34:34.791Z,100332.28
2018-04-29T14:37:02.373Z,100328.87
2018-04-29T14:39:29.998Z,100327.79
2018-04-29T14:41:57.663Z,100326.10
2018-04-29T14:44:25.273Z,100321.87
2018-04-29T14:46:52.846Z,100323.20
2018-04-29T14:49:20.485Z,100323.73
2018-04-29T14:51:48.093Z,100320.76
2018-04-29T14:54:15.707Z,100320.14
2018-04-29T14:56:44.130Z,100313.21
2018-04-29T14:59:11.710Z,100321.84
2018-04-29T15:01:39.285Z,100320.53
2018-04-29T15:04:06.866Z,100323.38
2018-04-29T15:06:34.493Z,100328.64
2018-04-29T15:09:02.162Z,100320.37
2018-04-29T15:11:29.773Z,100315.31
2018-04-29T15:13:57.389Z,100309.14
2018-04-29T15:16:24.969Z,100311.23
2018-04-29T15:18:59.315Z,100306.02
2018-04-29T15:21:26.925Z,100309.67
2018-04-29T15:23:54.590Z,100308.63
2018-04-29T15:26:22.170Z,100302.86
2018-04-29T15:28:49.749Z,100301.22
2018-04-29T15:31:17.333Z,100302.50
2018-04-29T15:33:44.901Z,100293.99
2018-04-29T15:36:12.476Z,100294.52
2018-04-29T15:38:40.058Z,100285.31
2018-04-29T15:41:07.653Z,100288.69
2018-04-29T15:43:35.243Z,100283.94
2018-04-29T15:46:02.829Z,100270.10
2018-04-29T15:48:30.460Z,100270.09
2018-04-29T15:50:58.039Z,100262.48
2018-04-29T15:53:25.617Z,100265.44
2018-04-29T15:55:53.195Z,100264.00
2018-04-29T15:58:20.769Z,100263.27
2018-04-29T16:00:48.346Z,100254.78
2018-04-29T16:03:16.003Z,100251.97
2018-04-29T16:05:43.580Z,100248.27
2018-04-29T16:08:11.188Z,100246.62
2018-04-29T16:10:38.765Z,100244.70
2018-04-29T16:13:06.345Z,100236.34
2018-04-29T16:15:33.923Z,100238.31
2018-04-29T16:18:01.503Z,100234.34
2018-04-29T16:20:29.087Z,100228.08
2018-04-29T16:22:56.710Z,100222.58
2018-04-29T16:25:24.323Z,100225.44
2018-04-29T16:27:51.905Z,100221.11
2018-04-29T16:30:19.546Z,100219.84
2018-04-29T16:32:47.127Z,100219.30
2018-04-29T16:35:14.760Z,100218.50
2018-04-29T16:37:42.342Z,100215.56
2018-04-29T16:40:09.990Z,100217.34
2018-04-29T16:42:38.502Z,100208.08
2018-04-29T16:45:06.071Z,100207.87
2018-04-29T16:47:33.681Z,100200.29
2018-04-29T16:50:01.257Z,100196.00
2018-04-29T16:52:28.869Z,100193.95
2018-04-29T16:54:56.448Z,100188.20
2018-04-29T16:57:24.062Z,100183.99
2018-04-29T16:59:51.637Z,100181.44
2018-04-29T17:02:19.220Z,100189.78
2018-04-29T17:04:46.842Z,100182.49
2018-04-29T17:07:14.439Z,100183.94
2018-04-29T17:09:42.054Z,100174.38
2018-04-29T17:12:09.714Z,100172.72
2018-04-29T17:14:37.380Z,100166.03
2018-04-29T17:17:05.078Z,100168.48
2018-04-29T17:19:32.703Z,100170.52
2018-04-29T17:22:00.311Z,100171.04
2018-04-29T17:24:27.890Z,100166.61
2018-04-29T17:26:55.590Z,100161.63
2018-04-29T17:29:23.262Z,100162.98
2018-04-29T17:31:50.814Z,100168.09
2018-04-29T17:34:18.474Z,100167.23
2018-04-29T17:36:46.957Z,100165.47
2018-04-29T17:39:14.538Z,100167.42
2018-04-29T17:41:42.118Z,100166.98
2018-04-29T17:44:09.771Z,100161.87
2018-04-29T17:46:37.337Z,100159.59
2018-04-29T17:49:04.966Z,100161.75
2018-04-29T17:51:32.546Z,100156.91
2018-04-29T17:54:00.123Z,100158.69
2018-04-29T17:56:27.739Z,100161.38
2018-04-29T17:58:55.364Z,100163.25
2018-04-29T18:01:23.114Z,100163.11
2018-04-29T18:03:50.686Z,100159.96
2018-04-29T18:06:18.476Z,100161.34
2018-04-29T18:08:46.066Z,100158.11
2018-04-29T18:11:13.766Z,100161.61
2018-04-29T18:13:41.461Z,100153.11
2018-04-29T18:16:30.020Z,100152.13
2018-04-29T18:19:10.046Z,100150.04
2018-04-29T18:21:39.590Z,100149.64
2018-04-29T18:24:07.459Z,100145.92
2018-04-29T18:26:35.124Z,100145.52
2018-04-29T18:29:02.787Z,100150.62
2018-04-29T18:31:30.367Z,100151.59
2018-04-29T18:33:58.018Z,100142.43
2018-04-29T18:36:25.618Z,100138.41
2018-04-29T18:38:53.253Z,100138.87
2018-04-29T18:41:20.813Z,100148.50
2018-04-29T18:43:48.434Z,100144.83
2018-04-29T18:46:16.146Z,100140.41
2018-04-29T18:48:43.727Z,100150.75
2018-04-29T18:51:11.613Z,100154.70
2018-04-29T18:53:39.042Z,100155.24
2018-04-29T18:56:06.627Z,100144.68
2018-04-29T18:58:34.211Z,100159.70
2018-04-29T19:01:01.791Z,100157.61
2018-04-29T19:03:29.375Z,100158.34
2018-04-29T19:05:59.806Z,100160.47
2018-04-29T19:08:27.385Z,100163.70
2018-04-29T19:10:54.962Z,100161.14
2018-04-29T19:13:22.542Z,100160.62
2018-04-29T19:15:50.125Z,100157.33
2018-04-29T19:18:17.763Z,100161.73
2018-04-29T19:20:45.345Z,100161.25
2018-04-29T19:23:13.126Z,100157.57
2018-04-29T19:25:40.734Z,100154.63
2018-04-29T19:28:08.315Z,100150.20
2018-04-29T19:30:35.929Z,100153.34
2018-04-29T19:33:03.538Z,100143.20
2018-04-29T19:35:31.118Z,100140.94
2018-04-29T19:37:58.758Z,100142.50
2018-04-29T19:40:26.345Z,100143.55
2018-04-29T19:42:53.930Z,100141.34
2018-04-29T19:45:21.511Z,100139.53
2018-04-29T19:47:49.109Z,100141.47
2018-04-29T19:50:16.685Z,100142.27
2018-04-29T19:52:44.264Z,100132.30
2018-04-29T19:55:11.924Z,100132.14
2018-04-29T19:57:39.549Z,100132.19
2018-04-29T20:00:07.166Z,100130.15
2018-04-29T20:02:34.745Z,100126.02
2018-04-29T20:05:02.387Z,100125.64
2018-04-29T20:07:30.004Z,100120.39
2018-04-29T20:09:57.611Z,100116.56
2018-04-29T20:12:25.194Z,100114.25
2018-04-29T20:14:52.838Z,100115.92
2018-04-29T20:17:20.482Z,100115.31
2018-04-29T20:19:48.067Z,100114.34
2018-04-29T20:22:15.638Z,100108.48
2018-04-29T20:27:33.621Z,100103.90
2018-04-29T20:30:01.228Z,100098.97
2018-04-29T20:32:54.563Z,100097.66
2018-04-29T20:35:22.175Z,100090.17
2018-04-29T20:37:49.770Z,100087.41
2018-04-29T20:40:18.221Z,100082.14
2018-04-29T20:42:45.829Z,100078.59
2018-04-29T20:45:13.405Z,100079.12
2018-04-29T20:47:41.047Z,100076.02
2018-04-29T20:50:08.641Z,100068.50
2018-04-29T20:52:36.223Z,100070.13
2018-04-29T20:55:03.827Z,100065.28
2018-04-29T20:57:31.413Z,100064.52
2018-04-29T20:59:58.996Z,100057.53
2018-04-29T21:02:26.575Z,100046.08
2018-04-29T21:04:54.178Z,100051.22
2018-04-29T21:07:21.762Z,100045.62
2018-04-29T21:09:49.343Z,100039.31
2018-04-29T21:12:16.926Z,100039.76
2018-04-29T21:14:44.539Z,100036.58
2018-04-29T21:17:12.140Z,100043.17
2018-04-29T21:19:39.726Z,100031.18
2018-04-29T21:22:07.307Z,100034.27
2018-04-29T21:24:34.894Z,100037.19
2018-04-29T21:27:02.471Z,100042.37
2018-04-29T21:29:30.077Z,100027.17
2018-04-29T21:31:57.677Z,100023.16
2018-04-29T21:34:26.226Z,100023.84
2018-04-29T21:36:53.843Z,100014.31
2018-04-29T21:39:21.507Z,100009.24
2018-04-29T21:41:49.093Z,100013.22
2018-04-29T21:44:16.727Z,100010.84
2018-04-29T21:46:44.393Z,100005.39
2018-04-29T21:49:11.961Z,100003.73
2018-04-29T21:51:39.538Z,100001.53
2018-04-29T21:54:07.113Z,100005.47
2018-04-29T21:56:34.704Z,99995.10
2018-04-29T21:59:02.762Z,99997.88
2018-04-29T22:01:30.365Z,99992.87
2018-04-29T22:03:57.970Z,99988.80
2018-04-29T22:06:25.549Z,99988.98
2018-04-29T22:08:53.159Z,99978.67
2018-04-29T22:11:20.738Z,99978.38
2018-04-29T22:13:48.337Z,99971.18
2018-04-29T22:16:15.912Z,99971.42
2018-04-29T22:18:43.518Z,99965.55
2018-04-29T22:21:11.097Z,99963.42
2018-04-29T22:23:38.672Z,99959.80
2018-04-29T22:26:06.238Z,99949.50
2018-04-29T22:28:33.813Z,99947.16
2018-04-29T22:31:01.422Z,99945.66
2018-04-29T22:33:28.997Z,99945.73
2018-04-29T22:35:56.630Z,99941.78
2018-04-29T22:38:24.196Z,99939.22
2018-04-29T22:40:51.770Z,99930.00
2018-04-29T22:43:19.349Z,99924.67
2018-04-29T22:45:46.922Z,99922.63
2018-04-29T22:48:14.504Z,99918.77
2018-04-29T22:50:42.122Z,99918.86
2018-04-29T22:53:09.703Z,99910.86
2018-04-29T22:55:37.284Z,99910.80
2018-04-29T22:58:04.857Z,99907.69
2018-04-29T23:00:32.435Z,99901.72
2018-04-29T23:03:00.043Z,99895.61
2018-04-29T23:05:27.670Z,99889.70
2018-04-29T23:07:55.274Z,99885.33
2018-04-29T23:10:22.873Z,99873.20
2018-04-29T23:12:50.450Z,99876.34
2018-04-29T23:15:18.120Z,99874.14
2018-04-29T23:17:45.795Z,99872.88
2018-04-29T23:20:13.385Z,99865.22
2018-04-29T23:22:40.957Z,99862.59
2018-04-29T23:25:09.466Z,99857.83
2018-04-29T23:27:37.043Z,99848.06
2018-04-29T23:30:04.642Z,99851.55
2018-04-29T23:32:32.222Z,99836.85
2018-04-29T23:34:59.914Z,99834.22
2018-04-29T23:37:27.489Z,99834.14
2018-04-29T23:39:55.071Z,99818.45
2018-04-29T23:42:22.641Z,99820.63
2018-04-29T23:44:51.100Z,99808.48
2018-04-29T23:47:18.677Z,99810.47
2018-04-29T23:49:46.249Z,99798.76
2018-04-29T23:52:13.822Z,99792.98
2018-04-29T23:54:41.401Z,99788.25
2018-04-29T23:57:09.009Z,99784.86
2018-04-29T23:59:36.586Z,99781.77
